CYEKCYUB

Guest
Details From CYEK - Arviat
To CYUB - Tuktoyaktuk
Flight Number -
Tags Decoded
Created
Modified
Stats Distance 2,571 nm / 4,762 km
Max Altitude 0 ft / 0 m
Waypoints 5
Social Downloads 0
Likes 0
Share VATSIM

Download

Looking for another format? Having issues loading an existing format? Contact us
Advertisement - Login to hide

Notes

Decoded

Route

CYEK CYBK CYCY CYVM CYUB

ID Type Via Altitude Latitude Longitude Leg Dist Tot Dist Heading (true) Name
O CYEK APT - 0 ft / 0 m 61.09886˚ -94.07665˚ - 0 nm - -
CYBK APT - 0 ft / 0 m 64.30444˚ -96.08195˚ 200 nm 200 nm 345° / 343° BAKER LAKE
CYCY APT - 0 ft / 0 m 70.48139˚ -68.52111˚ 727 nm 927 nm 47° / 73° -
CYVM APT - 0 ft / 0 m 67.54195˚ -64.03806˚ 201 nm 1128 nm 149° / 153° -
O CYUB APT - 0 ft / 0 m 69.43722˚ -133.04250˚ 1443 nm 2571 nm 306° / 241° -

Altitude Profile

Advertisement - Login to hide

Weather


0- 5 10 15 20 25 30 35+ Temperature / ° C

Clouds and Precipitation
Forecast for 2018-05-21 06:00 UTC. Updated 2 hours ago

Ground ~20,000 ft ~40,000 ft Winds

CYEK

Details ICAO CYEK (YEK)
Name ARVIAT
Region Canada
Timezone America/Rankin_Inlet (UTC-5.0)
Stats Elevation 32 ft / 10 m (AMSL)
Location 61.094167° -94.070834°
Runways 1
Magnetic Variation 3.172° W

METAR

CYEK 210700Z AUTO 32009KT 9SM CLR M12/M14 A3011 RMK SLP197

Decode

TAF

TAF CYEK 210538Z 2106/2118 32010KT P6SM FEW015 TEMPO 2106/2108 BKN015 FM210800 33012KT P6SM -SN BKN015 FM211200 33012KT P6SM -SN SCT015 OVC040 TEMPO 2112/2116 BKN015 RMK FCST BASED ON AUTO OBS. NXT FCST BY 211200Z

Decode

Departure Runways

ID Width Length Bearing (true) Bearing (mag) Surface Threshold Offset Overrun Length
15T 100 ft / 30 m 3,991 ft / 1,216 m 149.03° 152.20° Gravel 0 ft / 0 m 0 ft / 0 m
33T 100 ft / 30 m 3,991 ft / 1,216 m 329.05° 332.22° Gravel 0 ft / 0 m 0 ft / 0 m

CYUB

Details ICAO CYUB (YUB)
Name TUKTOYAKTUK
Region Canada
Timezone America/Yellowknife (UTC-6.0)
Stats Elevation 15 ft / 5 m (AMSL)
Location 69.433334° -133.026390°
Runways 1
Magnetic Variation 21.569° E

METAR

Not found

TAF

TAF CYUB 210038Z 2101/2105 08015KT P6SM FEW015 BKN060 TEMPO 2101/2105 BKN015 BKN060 RMK NXT FCST WILL BE ISSUED AT 211445Z

Decode

Destination Runways

ID Width Length Bearing (true) Bearing (mag) Surface Threshold Offset Overrun Length
09 150 ft / 46 m 5,012 ft / 1,528 m 124.50° 102.93° Gravel 200 ft / 61 m 0 ft / 0 m
27 150 ft / 46 m 5,012 ft / 1,528 m 304.53° 282.96° Gravel 200 ft / 61 m 0 ft / 0 m